Airport ID:KMHV
Update Time (UTC):22/08/2018 03:41
Wind Speed (Knots):12
Wind Direction (Magnetic):250
Temperature (°C):28
Dew Point (°C):1
Humidity (%):18
Altimeter (inHg):29.99
Density Altitude (Feet):4900
Visibility (Miles):10+
Clouds (Hundreds of feet):CLR
Present Weather:
METAR:METAR KMHV 220340Z AUTO 26012KT 10SM CLR 28/01 A2999 RMK A01

The data displayed is for advisory purposes only and is not to be used for flight planning or operations.

This page is not automatically refreshed. Reload the page to see current data.